sensor_id;sensor_type;location;lat;lon;timestamp;P1;durP1;ratioP1;P2;durP2;ratioP2
54899;SDS011;40801;41.924;25.562;2022-08-07T00:00:41;10.13;;;9.32;;
54899;SDS011;40801;41.924;25.562;2022-08-07T00:03:07;11.15;;;10.20;;
54899;SDS011;40801;41.924;25.562;2022-08-07T00:05:35;10.82;;;9.90;;
54899;SDS011;40801;41.924;25.562;2022-08-07T00:08:01;10.45;;;9.50;;
54899;SDS011;40801;41.924;25.562;2022-08-07T00:10:28;10.02;;;9.32;;
54899;SDS011;40801;41.924;25.562;2022-08-07T00:12:55;10.50;;;9.65;;
54899;SDS011;40801;41.924;25.562;2022-08-07T00:15:21;10.77;;;10.07;;
54899;SDS011;40801;41.924;25.562;2022-08-07T00:17:46;10.73;;;9.90;;
54899;SDS011;40801;41.924;25.562;2022-08-07T00:20:12;10.45;;;9.55;;
54899;SDS011;40801;41.924;25.562;2022-08-07T00:22:37;10.50;;;9.80;;
54899;SDS011;40801;41.924;25.562;2022-08-07T00:25:03;10.65;;;9.82;;
54899;SDS011;40801;41.924;25.562;2022-08-07T00:27:31;9.80;;;9.10;;
54899;SDS011;40801;41.924;25.562;2022-08-07T00:29:56;10.63;;;9.82;;
54899;SDS011;40801;41.924;25.562;2022-08-07T00:32:22;11.45;;;10.55;;
54899;SDS011;40801;41.924;25.562;2022-08-07T00:34:47;11.07;;;9.93;;
54899;SDS011;40801;41.924;25.562;2022-08-07T00:37:14;11.23;;;10.30;;
54899;SDS011;40801;41.924;25.562;2022-08-07T00:39:40;10.93;;;10.23;;
54899;SDS011;40801;41.924;25.562;2022-08-07T00:42:05;11.45;;;10.55;;
54899;SDS011;40801;41.924;25.562;2022-08-07T00:44:34;10.85;;;9.85;;
54899;SDS011;40801;41.924;25.562;2022-08-07T00:47:01;11.05;;;10.15;;
54899;SDS011;40801;41.924;25.562;2022-08-07T00:49:27;10.57;;;9.68;;
54899;SDS011;40801;41.924;25.562;2022-08-07T00:51:53;10.55;;;9.85;;
54899;SDS011;40801;41.924;25.562;2022-08-07T00:54:18;11.27;;;10.50;;
54899;SDS011;40801;41.924;25.562;2022-08-07T00:56:44;11.27;;;10.27;;
54899;SDS011;40801;41.924;25.562;2022-08-07T00:59:09;10.63;;;9.82;;
54899;SDS011;40801;41.924;25.562;2022-08-07T01:01:34;10.65;;;9.80;;
54899;SDS011;40801;41.924;25.562;2022-08-07T01:04:03;10.90;;;10.02;;
54899;SDS011;40801;41.924;25.562;2022-08-07T01:06:30;10.70;;;10.00;;
54899;SDS011;40801;41.924;25.562;2022-08-07T01:08:57;11.90;;;10.95;;
54899;SDS011;40801;41.924;25.562;2022-08-07T01:11:23;10.38;;;9.50;;
54899;SDS011;40801;41.924;25.562;2022-08-07T01:13:49;11.40;;;10.50;;
54899;SDS011;40801;41.924;25.562;2022-08-07T01:16:15;9.95;;;9.25;;
54899;SDS011;40801;41.924;25.562;2022-08-07T01:18:41;11.10;;;10.30;;
54899;SDS011;40801;41.924;25.562;2022-08-07T01:21:13;10.30;;;9.50;;
54899;SDS011;40801;41.924;25.562;2022-08-07T01:23:40;11.35;;;10.45;;
54899;SDS011;40801;41.924;25.562;2022-08-07T01:26:08;11.60;;;10.70;;
54899;SDS011;40801;41.924;25.562;2022-08-07T01:28:35;10.50;;;9.70;;
54899;SDS011;40801;41.924;25.562;2022-08-07T01:31:02;10.88;;;9.88;;
54899;SDS011;40801;41.924;25.562;2022-08-07T01:33:28;11.63;;;10.57;;
54899;SDS011;40801;41.924;25.562;2022-08-07T01:35:55;10.80;;;9.98;;
54899;SDS011;40801;41.924;25.562;2022-08-07T01:38:22;11.15;;;10.25;;
54899;SDS011;40801;41.924;25.562;2022-08-07T01:40:48;10.85;;;10.13;;
54899;SDS011;40801;41.924;25.562;2022-08-07T01:43:15;11.57;;;10.77;;
54899;SDS011;40801;41.924;25.562;2022-08-07T01:45:41;12.05;;;11.00;;
54899;SDS011;40801;41.924;25.562;2022-08-07T01:48:07;11.13;;;10.32;;
54899;SDS011;40801;41.924;25.562;2022-08-07T01:50:34;11.80;;;11.00;;
54899;SDS011;40801;41.924;25.562;2022-08-07T01:53:02;11.60;;;10.73;;
54899;SDS011;40801;41.924;25.562;2022-08-07T01:55:33;11.55;;;10.60;;
54899;SDS011;40801;41.924;25.562;2022-08-07T01:58:06;11.27;;;10.38;;
54899;SDS011;40801;41.924;25.562;2022-08-07T02:00:34;12.25;;;11.13;;
54899;SDS011;40801;41.924;25.562;2022-08-07T02:03:02;11.70;;;10.63;;
54899;SDS011;40801;41.924;25.562;2022-08-07T02:05:38;11.98;;;11.07;;
54899;SDS011;40801;41.924;25.562;2022-08-07T02:08:10;11.60;;;10.73;;
54899;SDS011;40801;41.924;25.562;2022-08-07T02:10:39;11.52;;;10.75;;
54899;SDS011;40801;41.924;25.562;2022-08-07T02:13:06;11.50;;;10.57;;
54899;SDS011;40801;41.924;25.562;2022-08-07T02:15:34;12.13;;;11.02;;
54899;SDS011;40801;41.924;25.562;2022-08-07T02:18:01;11.68;;;10.73;;
54899;SDS011;40801;41.924;25.562;2022-08-07T02:20:28;12.75;;;11.75;;
54899;SDS011;40801;41.924;25.562;2022-08-07T02:22:55;11.43;;;10.63;;
54899;SDS011;40801;41.924;25.562;2022-08-07T02:25:25;12.13;;;11.13;;
54899;SDS011;40801;41.924;25.562;2022-08-07T02:27:52;12.38;;;11.38;;
54899;SDS011;40801;41.924;25.562;2022-08-07T02:30:19;13.48;;;12.38;;
54899;SDS011;40801;41.924;25.562;2022-08-07T02:32:45;12.50;;;11.45;;
54899;SDS011;40801;41.924;25.562;2022-08-07T02:35:13;12.20;;;11.10;;
54899;SDS011;40801;41.924;25.562;2022-08-07T02:37:43;12.40;;;11.38;;
54899;SDS011;40801;41.924;25.562;2022-08-07T02:40:09;11.80;;;10.90;;
54899;SDS011;40801;41.924;25.562;2022-08-07T02:42:35;12.25;;;11.30;;
54899;SDS011;40801;41.924;25.562;2022-08-07T02:45:02;11.70;;;10.80;;
54899;SDS011;40801;41.924;25.562;2022-08-07T02:47:29;12.35;;;11.55;;
54899;SDS011;40801;41.924;25.562;2022-08-07T02:49:54;12.52;;;11.50;;
54899;SDS011;40801;41.924;25.562;2022-08-07T02:52:22;12.77;;;11.88;;
54899;SDS011;40801;41.924;25.562;2022-08-07T02:54:56;12.52;;;11.57;;
54899;SDS011;40801;41.924;25.562;2022-08-07T02:57:24;13.03;;;12.03;;
54899;SDS011;40801;41.924;25.562;2022-08-07T02:59:51;12.43;;;11.38;;
54899;SDS011;40801;41.924;25.562;2022-08-07T03:02:17;12.52;;;11.73;;
54899;SDS011;40801;41.924;25.562;2022-08-07T03:04:43;13.27;;;12.13;;
54899;SDS011;40801;41.924;25.562;2022-08-07T03:07:10;13.40;;;12.40;;
54899;SDS011;40801;41.924;25.562;2022-08-07T03:09:37;13.80;;;12.48;;
54899;SDS011;40801;41.924;25.562;2022-08-07T03:12:04;13.98;;;12.90;;
54899;SDS011;40801;41.924;25.562;2022-08-07T03:14:31;13.77;;;12.73;;
54899;SDS011;40801;41.924;25.562;2022-08-07T03:16:58;14.98;;;13.80;;
54899;SDS011;40801;41.924;25.562;2022-08-07T03:19:23;15.70;;;14.40;;
54899;SDS011;40801;41.924;25.562;2022-08-07T03:21:49;14.77;;;13.70;;
54899;SDS011;40801;41.924;25.562;2022-08-07T03:24:15;13.88;;;12.88;;
54899;SDS011;40801;41.924;25.562;2022-08-07T03:26:41;14.70;;;13.38;;
54899;SDS011;40801;41.924;25.562;2022-08-07T03:29:09;13.75;;;12.75;;
54899;SDS011;40801;41.924;25.562;2022-08-07T03:31:37;13.35;;;12.32;;
54899;SDS011;40801;41.924;25.562;2022-08-07T03:34:05;13.80;;;12.65;;
54899;SDS011;40801;41.924;25.562;2022-08-07T03:36:33;13.88;;;12.77;;
54899;SDS011;40801;41.924;25.562;2022-08-07T03:39:07;13.38;;;12.30;;
54899;SDS011;40801;41.924;25.562;2022-08-07T03:41:34;12.85;;;11.88;;
54899;SDS011;40801;41.924;25.562;2022-08-07T03:44:01;15.20;;;12.45;;
54899;SDS011;40801;41.924;25.562;2022-08-07T03:46:27;13.52;;;12.52;;
54899;SDS011;40801;41.924;25.562;2022-08-07T03:48:53;14.30;;;13.25;;
54899;SDS011;40801;41.924;25.562;2022-08-07T03:51:19;13.10;;;12.20;;
54899;SDS011;40801;41.924;25.562;2022-08-07T03:53:45;13.45;;;12.40;;
54899;SDS011;40801;41.924;25.562;2022-08-07T03:56:12;13.55;;;12.55;;
54899;SDS011;40801;41.924;25.562;2022-08-07T03:58:42;14.60;;;13.57;;
54899;SDS011;40801;41.924;25.562;2022-08-07T04:01:08;14.32;;;13.13;;
54899;SDS011;40801;41.924;25.562;2022-08-07T04:03:35;14.02;;;12.93;;
54899;SDS011;40801;41.924;25.562;2022-08-07T04:06:00;14.80;;;13.43;;
54899;SDS011;40801;41.924;25.562;2022-08-07T04:08:26;14.48;;;13.20;;
54899;SDS011;40801;41.924;25.562;2022-08-07T04:10:52;13.68;;;12.77;;
54899;SDS011;40801;41.924;25.562;2022-08-07T04:13:18;14.35;;;13.25;;
54899;SDS011;40801;41.924;25.562;2022-08-07T04:15:47;13.57;;;12.57;;
54899;SDS011;40801;41.924;25.562;2022-08-07T04:18:13;15.73;;;14.38;;
54899;SDS011;40801;41.924;25.562;2022-08-07T04:20:39;14.40;;;13.27;;
54899;SDS011;40801;41.924;25.562;2022-08-07T04:23:06;13.85;;;12.85;;
54899;SDS011;40801;41.924;25.562;2022-08-07T04:25:32;14.05;;;13.02;;
54899;SDS011;40801;41.924;25.562;2022-08-07T04:28:02;13.68;;;12.57;;
54899;SDS011;40801;41.924;25.562;2022-08-07T04:30:28;14.60;;;13.02;;
54899;SDS011;40801;41.924;25.562;2022-08-07T04:32:53;14.38;;;13.13;;
54899;SDS011;40801;41.924;25.562;2022-08-07T04:35:19;14.43;;;12.98;;
54899;SDS011;40801;41.924;25.562;2022-08-07T04:37:45;14.75;;;13.65;;
54899;SDS011;40801;41.924;25.562;2022-08-07T04:40:11;13.52;;;12.63;;
54899;SDS011;40801;41.924;25.562;2022-08-07T04:42:37;13.95;;;12.93;;
54899;SDS011;40801;41.924;25.562;2022-08-07T04:45:02;13.18;;;12.20;;
54899;SDS011;40801;41.924;25.562;2022-08-07T04:47:40;13.55;;;12.63;;
54899;SDS011;40801;41.924;25.562;2022-08-07T04:50:21;13.77;;;12.80;;
54899;SDS011;40801;41.924;25.562;2022-08-07T04:52:57;14.27;;;12.98;;
54899;SDS011;40801;41.924;25.562;2022-08-07T04:55:34;13.57;;;12.55;;
54899;SDS011;40801;41.924;25.562;2022-08-07T05:01:11;13.73;;;12.52;;
54899;SDS011;40801;41.924;25.562;2022-08-07T05:06:30;13.68;;;12.68;;
54899;SDS011;40801;41.924;25.562;2022-08-07T05:09:03;12.63;;;11.65;;
54899;SDS011;40801;41.924;25.562;2022-08-07T05:11:33;13.07;;;11.98;;
54899;SDS011;40801;41.924;25.562;2022-08-07T05:14:10;12.00;;;11.20;;
54899;SDS011;40801;41.924;25.562;2022-08-07T05:16:38;14.07;;;12.68;;
54899;SDS011;40801;41.924;25.562;2022-08-07T05:19:16;12.48;;;11.48;;
54899;SDS011;40801;41.924;25.562;2022-08-07T05:24:16;12.77;;;11.80;;
54899;SDS011;40801;41.924;25.562;2022-08-07T05:26:43;13.25;;;12.02;;
54899;SDS011;40801;41.924;25.562;2022-08-07T05:29:12;12.45;;;11.45;;
54899;SDS011;40801;41.924;25.562;2022-08-07T05:31:40;14.93;;;11.15;;
54899;SDS011;40801;41.924;25.562;2022-08-07T05:34:09;12.23;;;11.30;;
54899;SDS011;40801;41.924;25.562;2022-08-07T05:36:47;12.65;;;11.68;;
54899;SDS011;40801;41.924;25.562;2022-08-07T05:39:16;11.77;;;10.85;;
54899;SDS011;40801;41.924;25.562;2022-08-07T05:41:43;12.10;;;11.20;;
54899;SDS011;40801;41.924;25.562;2022-08-07T05:44:11;12.13;;;11.23;;
54899;SDS011;40801;41.924;25.562;2022-08-07T05:46:38;12.82;;;11.68;;
54899;SDS011;40801;41.924;25.562;2022-08-07T05:49:06;11.73;;;10.73;;
54899;SDS011;40801;41.924;25.562;2022-08-07T05:51:33;11.68;;;10.75;;
54899;SDS011;40801;41.924;25.562;2022-08-07T05:53:59;11.60;;;10.70;;
54899;SDS011;40801;41.924;25.562;2022-08-07T05:56:25;11.63;;;10.63;;
54899;SDS011;40801;41.924;25.562;2022-08-07T05:58:53;12.65;;;11.65;;
54899;SDS011;40801;41.924;25.562;2022-08-07T06:01:19;12.75;;;11.52;;
54899;SDS011;40801;41.924;25.562;2022-08-07T06:03:47;12.10;;;11.05;;
54899;SDS011;40801;41.924;25.562;2022-08-07T06:06:16;11.93;;;11.05;;
54899;SDS011;40801;41.924;25.562;2022-08-07T06:08:41;11.85;;;10.88;;
54899;SDS011;40801;41.924;25.562;2022-08-07T06:11:08;12.25;;;11.32;;
54899;SDS011;40801;41.924;25.562;2022-08-07T06:13:35;12.40;;;11.40;;
54899;SDS011;40801;41.924;25.562;2022-08-07T06:16:02;11.43;;;10.35;;
54899;SDS011;40801;41.924;25.562;2022-08-07T06:18:30;11.55;;;10.65;;
54899;SDS011;40801;41.924;25.562;2022-08-07T06:20:57;11.52;;;10.63;;
54899;SDS011;40801;41.924;25.562;2022-08-07T06:23:24;11.52;;;10.63;;
54899;SDS011;40801;41.924;25.562;2022-08-07T06:25:49;12.35;;;11.27;;
54899;SDS011;40801;41.924;25.562;2022-08-07T06:28:15;11.23;;;10.32;;
54899;SDS011;40801;41.924;25.562;2022-08-07T06:30:41;11.75;;;10.63;;
54899;SDS011;40801;41.924;25.562;2022-08-07T06:33:07;12.35;;;11.25;;
54899;SDS011;40801;41.924;25.562;2022-08-07T06:35:33;12.55;;;11.45;;
54899;SDS011;40801;41.924;25.562;2022-08-07T06:38:00;11.38;;;10.57;;
54899;SDS011;40801;41.924;25.562;2022-08-07T06:40:26;11.45;;;10.63;;
54899;SDS011;40801;41.924;25.562;2022-08-07T06:42:54;11.55;;;10.55;;
54899;SDS011;40801;41.924;25.562;2022-08-07T06:45:21;10.00;;;9.30;;
54899;SDS011;40801;41.924;25.562;2022-08-07T06:47:47;38.50;;;34.97;;
54899;SDS011;40801;41.924;25.562;2022-08-07T06:50:13;10.88;;;10.05;;
54899;SDS011;40801;41.924;25.562;2022-08-07T06:52:41;11.23;;;10.13;;
54899;SDS011;40801;41.924;25.562;2022-08-07T06:55:10;10.35;;;9.55;;
54899;SDS011;40801;41.924;25.562;2022-08-07T06:57:40;9.55;;;8.75;;
54899;SDS011;40801;41.924;25.562;2022-08-07T07:00:07;9.05;;;8.38;;
54899;SDS011;40801;41.924;25.562;2022-08-07T07:02:34;9.60;;;8.93;;
54899;SDS011;40801;41.924;25.562;2022-08-07T07:05:01;10.43;;;9.57;;
54899;SDS011;40801;41.924;25.562;2022-08-07T07:07:27;10.90;;;9.80;;
54899;SDS011;40801;41.924;25.562;2022-08-07T07:09:52;10.52;;;9.60;;
54899;SDS011;40801;41.924;25.562;2022-08-07T07:17:32;9.85;;;8.98;;
54899;SDS011;40801;41.924;25.562;2022-08-07T07:20:03;9.95;;;9.05;;
54899;SDS011;40801;41.924;25.562;2022-08-07T07:22:40;11.10;;;10.00;;
54899;SDS011;40801;41.924;25.562;2022-08-07T07:25:07;10.10;;;9.20;;
54899;SDS011;40801;41.924;25.562;2022-08-07T07:27:37;10.00;;;9.30;;
54899;SDS011;40801;41.924;25.562;2022-08-07T07:30:06;10.55;;;9.70;;
54899;SDS011;40801;41.924;25.562;2022-08-07T07:32:33;9.88;;;9.07;;
54899;SDS011;40801;41.924;25.562;2022-08-07T07:35:05;9.40;;;8.65;;
54899;SDS011;40801;41.924;25.562;2022-08-07T07:37:35;10.10;;;9.40;;
54899;SDS011;40801;41.924;25.562;2022-08-07T07:40:01;10.65;;;9.85;;
54899;SDS011;40801;41.924;25.562;2022-08-07T07:42:30;9.45;;;8.85;;
54899;SDS011;40801;41.924;25.562;2022-08-07T07:45:01;8.97;;;8.27;;
54899;SDS011;40801;41.924;25.562;2022-08-07T07:47:30;9.43;;;8.45;;
54899;SDS011;40801;41.924;25.562;2022-08-07T07:49:58;10.05;;;9.25;;
54899;SDS011;40801;41.924;25.562;2022-08-07T07:52:25;9.13;;;8.43;;
54899;SDS011;40801;41.924;25.562;2022-08-07T07:54:52;11.40;;;10.40;;
54899;SDS011;40801;41.924;25.562;2022-08-07T07:57:20;9.05;;;8.43;;
54899;SDS011;40801;41.924;25.562;2022-08-07T07:59:48;9.90;;;9.10;;
54899;SDS011;40801;41.924;25.562;2022-08-07T08:02:15;9.75;;;9.13;;
54899;SDS011;40801;41.924;25.562;2022-08-07T08:04:43;9.52;;;8.55;;
54899;SDS011;40801;41.924;25.562;2022-08-07T08:07:10;10.05;;;9.25;;
54899;SDS011;40801;41.924;25.562;2022-08-07T08:09:37;8.55;;;7.90;;
54899;SDS011;40801;41.924;25.562;2022-08-07T08:12:05;9.03;;;8.23;;
54899;SDS011;40801;41.924;25.562;2022-08-07T08:14:31;8.52;;;7.72;;
54899;SDS011;40801;41.924;25.562;2022-08-07T08:16:59;8.13;;;7.35;;
54899;SDS011;40801;41.924;25.562;2022-08-07T08:19:26;7.65;;;7.20;;
54899;SDS011;40801;41.924;25.562;2022-08-07T08:21:53;8.30;;;7.75;;
54899;SDS011;40801;41.924;25.562;2022-08-07T08:24:43;8.75;;;8.10;;
54899;SDS011;40801;41.924;25.562;2022-08-07T08:27:33;7.50;;;6.80;;
54899;SDS011;40801;41.924;25.562;2022-08-07T08:30:02;6.93;;;6.43;;
54899;SDS011;40801;41.924;25.562;2022-08-07T08:32:31;6.63;;;6.10;;
54899;SDS011;40801;41.924;25.562;2022-08-07T08:35:00;12.93;;;6.70;;
54899;SDS011;40801;41.924;25.562;2022-08-07T08:37:27;7.97;;;5.50;;
54899;SDS011;40801;41.924;25.562;2022-08-07T08:39:54;5.78;;;5.38;;
54899;SDS011;40801;41.924;25.562;2022-08-07T08:48:03;5.78;;;5.45;;
54899;SDS011;40801;41.924;25.562;2022-08-07T08:50:36;5.60;;;5.05;;
54899;SDS011;40801;41.924;25.562;2022-08-07T08:53:29;5.78;;;5.38;;
54899;SDS011;40801;41.924;25.562;2022-08-07T08:56:02;7.30;;;6.78;;
54899;SDS011;40801;41.924;25.562;2022-08-07T09:01:11;5.82;;;5.30;;
54899;SDS011;40801;41.924;25.562;2022-08-07T09:03:49;5.68;;;5.28;;
54899;SDS011;40801;41.924;25.562;2022-08-07T09:12:00;5.25;;;4.95;;
54899;SDS011;40801;41.924;25.562;2022-08-07T09:14:37;5.25;;;4.90;;
54899;SDS011;40801;41.924;25.562;2022-08-07T09:17:24;5.45;;;5.05;;
54899;SDS011;40801;41.924;25.562;2022-08-07T09:25:22;5.10;;;4.60;;
54899;SDS011;40801;41.924;25.562;2022-08-07T09:30:45;5.32;;;4.93;;
54899;SDS011;40801;41.924;25.562;2022-08-07T09:36:06;5.55;;;5.22;;
54899;SDS011;40801;41.924;25.562;2022-08-07T09:44:20;6.18;;;5.78;;
54899;SDS011;40801;41.924;25.562;2022-08-07T09:47:34;5.88;;;5.40;;
54899;SDS011;40801;41.924;25.562;2022-08-07T09:52:59;6.55;;;5.93;;
54899;SDS011;40801;41.924;25.562;2022-08-07T10:01:21;6.65;;;6.15;;
54899;SDS011;40801;41.924;25.562;2022-08-07T10:09:17;5.85;;;5.35;;
54899;SDS011;40801;41.924;25.562;2022-08-07T10:20:41;5.88;;;5.38;;
54899;SDS011;40801;41.924;25.562;2022-08-07T10:26:17;6.40;;;5.85;;
54899;SDS011;40801;41.924;25.562;2022-08-07T10:31:59;5.93;;;5.30;;
54899;SDS011;40801;41.924;25.562;2022-08-07T10:34:39;6.28;;;5.75;;
54899;SDS011;40801;41.924;25.562;2022-08-07T10:40:10;6.95;;;6.32;;
54899;SDS011;40801;41.924;25.562;2022-08-07T10:42:59;6.18;;;5.78;;
54899;SDS011;40801;41.924;25.562;2022-08-07T10:45:32;6.53;;;6.07;;
54899;SDS011;40801;41.924;25.562;2022-08-07T10:50:59;7.07;;;6.28;;
54899;SDS011;40801;41.924;25.562;2022-08-07T10:56:14;6.75;;;5.30;;
54899;SDS011;40801;41.924;25.562;2022-08-07T11:04:09;5.95;;;5.55;;
54899;SDS011;40801;41.924;25.562;2022-08-07T11:09:27;5.57;;;5.13;;
54899;SDS011;40801;41.924;25.562;2022-08-07T11:12:02;7.85;;;6.07;;
54899;SDS011;40801;41.924;25.562;2022-08-07T11:14:45;7.78;;;6.60;;
54899;SDS011;40801;41.924;25.562;2022-08-07T11:17:24;5.90;;;5.50;;
54899;SDS011;40801;41.924;25.562;2022-08-07T11:19:58;7.45;;;6.85;;
54899;SDS011;40801;41.924;25.562;2022-08-07T11:27:50;13.82;;;9.25;;
54899;SDS011;40801;41.924;25.562;2022-08-07T11:30:27;8.35;;;7.72;;
54899;SDS011;40801;41.924;25.562;2022-08-07T11:35:52;9.93;;;9.20;;
54899;SDS011;40801;41.924;25.562;2022-08-07T11:38:57;7.70;;;7.10;;
54899;SDS011;40801;41.924;25.562;2022-08-07T11:41:36;6.70;;;6.20;;
54899;SDS011;40801;41.924;25.562;2022-08-07T11:44:21;7.15;;;6.57;;
54899;SDS011;40801;41.924;25.562;2022-08-07T11:46:57;6.88;;;6.40;;
54899;SDS011;40801;41.924;25.562;2022-08-07T11:49:48;6.82;;;6.18;;
54899;SDS011;40801;41.924;25.562;2022-08-07T12:04:03;6.25;;;5.70;;
54899;SDS011;40801;41.924;25.562;2022-08-07T12:14:30;5.68;;;5.10;;
54899;SDS011;40801;41.924;25.562;2022-08-07T12:17:21;7.82;;;5.82;;
54899;SDS011;40801;41.924;25.562;2022-08-07T12:28:22;23.13;;;7.30;;
54899;SDS011;40801;41.924;25.562;2022-08-07T12:30:52;21.10;;;6.72;;
54899;SDS011;40801;41.924;25.562;2022-08-07T12:33:20;14.57;;;5.93;;
54899;SDS011;40801;41.924;25.562;2022-08-07T12:35:50;11.13;;;6.22;;
54899;SDS011;40801;41.924;25.562;2022-08-07T12:38:18;13.43;;;6.10;;
54899;SDS011;40801;41.924;25.562;2022-08-07T12:40:45;13.43;;;6.40;;
54899;SDS011;40801;41.924;25.562;2022-08-07T12:43:14;10.10;;;6.30;;
54899;SDS011;40801;41.924;25.562;2022-08-07T12:51:59;6.32;;;5.25;;
54899;SDS011;40801;41.924;25.562;2022-08-07T12:54:29;7.05;;;5.28;;
54899;SDS011;40801;41.924;25.562;2022-08-07T12:56:58;10.25;;;6.10;;
54899;SDS011;40801;41.924;25.562;2022-08-07T12:59:29;7.80;;;5.43;;
54899;SDS011;40801;41.924;25.562;2022-08-07T13:07:13;7.80;;;5.95;;
54899;SDS011;40801;41.924;25.562;2022-08-07T13:15:27;8.35;;;7.38;;
54899;SDS011;40801;41.924;25.562;2022-08-07T13:21:06;7.30;;;6.65;;
54899;SDS011;40801;41.924;25.562;2022-08-07T13:24:22;7.20;;;6.32;;
54899;SDS011;40801;41.924;25.562;2022-08-07T13:32:03;7.82;;;7.10;;
54899;SDS011;40801;41.924;25.562;2022-08-07T13:34:45;8.60;;;7.28;;
54899;SDS011;40801;41.924;25.562;2022-08-07T13:43:13;7.65;;;6.30;;
54899;SDS011;40801;41.924;25.562;2022-08-07T13:45:40;7.70;;;6.47;;
54899;SDS011;40801;41.924;25.562;2022-08-07T13:48:09;6.32;;;5.70;;
54899;SDS011;40801;41.924;25.562;2022-08-07T13:50:38;6.85;;;6.30;;
54899;SDS011;40801;41.924;25.562;2022-08-07T13:53:05;6.78;;;6.28;;
54899;SDS011;40801;41.924;25.562;2022-08-07T13:55:32;7.38;;;6.70;;
54899;SDS011;40801;41.924;25.562;2022-08-07T13:58:09;6.90;;;6.25;;
54899;SDS011;40801;41.924;25.562;2022-08-07T14:00:54;10.82;;;9.77;;
54899;SDS011;40801;41.924;25.562;2022-08-07T14:03:23;6.97;;;6.33;;
54899;SDS011;40801;41.924;25.562;2022-08-07T14:08:21;6.85;;;6.05;;
54899;SDS011;40801;41.924;25.562;2022-08-07T14:10:49;6.70;;;6.03;;
54899;SDS011;40801;41.924;25.562;2022-08-07T14:13:17;9.57;;;6.65;;
54899;SDS011;40801;41.924;25.562;2022-08-07T14:15:50;6.32;;;5.88;;
54899;SDS011;40801;41.924;25.562;2022-08-07T14:18:20;7.32;;;6.65;;
54899;SDS011;40801;41.924;25.562;2022-08-07T14:20:48;9.75;;;6.32;;
54899;SDS011;40801;41.924;25.562;2022-08-07T14:23:18;8.40;;;6.78;;
54899;SDS011;40801;41.924;25.562;2022-08-07T14:25:53;6.47;;;5.85;;
54899;SDS011;40801;41.924;25.562;2022-08-07T14:28:23;6.35;;;5.93;;
54899;SDS011;40801;41.924;25.562;2022-08-07T14:30:52;6.85;;;6.28;;
54899;SDS011;40801;41.924;25.562;2022-08-07T14:33:19;7.18;;;6.57;;
54899;SDS011;40801;41.924;25.562;2022-08-07T14:35:45;10.70;;;6.60;;
54899;SDS011;40801;41.924;25.562;2022-08-07T14:38:11;8.00;;;7.20;;
54899;SDS011;40801;41.924;25.562;2022-08-07T14:40:39;10.20;;;8.20;;
54899;SDS011;40801;41.924;25.562;2022-08-07T14:43:09;8.13;;;7.43;;
54899;SDS011;40801;41.924;25.562;2022-08-07T14:45:50;8.70;;;6.47;;
54899;SDS011;40801;41.924;25.562;2022-08-07T14:48:37;7.22;;;6.63;;
54899;SDS011;40801;41.924;25.562;2022-08-07T14:51:06;7.37;;;6.77;;
54899;SDS011;40801;41.924;25.562;2022-08-07T14:53:37;7.65;;;7.03;;
54899;SDS011;40801;41.924;25.562;2022-08-07T14:56:05;7.10;;;6.50;;
54899;SDS011;40801;41.924;25.562;2022-08-07T14:58:33;8.40;;;7.47;;
54899;SDS011;40801;41.924;25.562;2022-08-07T15:01:02;7.55;;;7.05;;
54899;SDS011;40801;41.924;25.562;2022-08-07T15:03:30;8.98;;;7.78;;
54899;SDS011;40801;41.924;25.562;2022-08-07T15:05:58;7.95;;;6.85;;
54899;SDS011;40801;41.924;25.562;2022-08-07T15:08:26;9.07;;;8.23;;
54899;SDS011;40801;41.924;25.562;2022-08-07T15:11:05;8.00;;;7.32;;
54899;SDS011;40801;41.924;25.562;2022-08-07T15:13:35;8.07;;;7.22;;
54899;SDS011;40801;41.924;25.562;2022-08-07T15:16:10;7.55;;;6.80;;
54899;SDS011;40801;41.924;25.562;2022-08-07T15:18:42;6.93;;;6.28;;
54899;SDS011;40801;41.924;25.562;2022-08-07T15:21:16;7.65;;;6.90;;
54899;SDS011;40801;41.924;25.562;2022-08-07T15:23:45;6.80;;;6.20;;
54899;SDS011;40801;41.924;25.562;2022-08-07T15:26:14;13.38;;;12.20;;
54899;SDS011;40801;41.924;25.562;2022-08-07T15:28:41;9.27;;;6.90;;
54899;SDS011;40801;41.924;25.562;2022-08-07T15:31:10;7.70;;;6.90;;
54899;SDS011;40801;41.924;25.562;2022-08-07T15:33:39;7.97;;;7.28;;
54899;SDS011;40801;41.924;25.562;2022-08-07T15:36:05;7.28;;;6.22;;
54899;SDS011;40801;41.924;25.562;2022-08-07T15:38:33;10.88;;;7.30;;
54899;SDS011;40801;41.924;25.562;2022-08-07T15:41:05;8.13;;;7.43;;
54899;SDS011;40801;41.924;25.562;2022-08-07T15:43:35;9.73;;;8.13;;
54899;SDS011;40801;41.924;25.562;2022-08-07T15:48:47;7.50;;;6.55;;
54899;SDS011;40801;41.924;25.562;2022-08-07T15:51:14;7.93;;;6.63;;
54899;SDS011;40801;41.924;25.562;2022-08-07T15:53:42;7.65;;;6.32;;
54899;SDS011;40801;41.924;25.562;2022-08-07T15:56:13;6.88;;;6.38;;
54899;SDS011;40801;41.924;25.562;2022-08-07T16:01:12;7.70;;;7.10;;
54899;SDS011;40801;41.924;25.562;2022-08-07T16:03:43;6.75;;;6.25;;
54899;SDS011;40801;41.924;25.562;2022-08-07T16:06:12;7.65;;;6.28;;
54899;SDS011;40801;41.924;25.562;2022-08-07T16:08:43;8.35;;;6.97;;
54899;SDS011;40801;41.924;25.562;2022-08-07T16:14:14;7.82;;;7.22;;
54899;SDS011;40801;41.924;25.562;2022-08-07T16:24:55;7.20;;;6.57;;
54899;SDS011;40801;41.924;25.562;2022-08-07T16:32:38;7.95;;;7.20;;
54899;SDS011;40801;41.924;25.562;2022-08-07T16:38:09;8.13;;;7.43;;
54899;SDS011;40801;41.924;25.562;2022-08-07T16:54:52;8.88;;;8.25;;
54899;SDS011;40801;41.924;25.562;2022-08-07T16:57:35;7.93;;;7.32;;
54899;SDS011;40801;41.924;25.562;2022-08-07T17:00:40;7.93;;;7.32;;
54899;SDS011;40801;41.924;25.562;2022-08-07T17:03:24;7.90;;;7.40;;
54899;SDS011;40801;41.924;25.562;2022-08-07T17:11:59;10.13;;;9.30;;
54899;SDS011;40801;41.924;25.562;2022-08-07T17:14:49;10.27;;;9.27;;
54899;SDS011;40801;41.924;25.562;2022-08-07T17:17:27;9.55;;;8.80;;
54899;SDS011;40801;41.924;25.562;2022-08-07T17:22:38;8.57;;;7.97;;
54899;SDS011;40801;41.924;25.562;2022-08-07T17:27:49;8.97;;;8.33;;
54899;SDS011;40801;41.924;25.562;2022-08-07T17:30:29;9.30;;;8.50;;
54899;SDS011;40801;41.924;25.562;2022-08-07T17:33:09;9.30;;;8.60;;
54899;SDS011;40801;41.924;25.562;2022-08-07T17:38:12;8.43;;;7.82;;
54899;SDS011;40801;41.924;25.562;2022-08-07T17:43:29;8.93;;;8.18;;
54899;SDS011;40801;41.924;25.562;2022-08-07T17:45:57;8.85;;;8.23;;
54899;SDS011;40801;41.924;25.562;2022-08-07T17:48:34;9.07;;;8.32;;
54899;SDS011;40801;41.924;25.562;2022-08-07T17:51:37;8.88;;;8.18;;
54899;SDS011;40801;41.924;25.562;2022-08-07T17:54:46;8.55;;;7.95;;
54899;SDS011;40801;41.924;25.562;2022-08-07T17:57:19;9.30;;;8.70;;
54899;SDS011;40801;41.924;25.562;2022-08-07T18:00:00;10.95;;;8.95;;
54899;SDS011;40801;41.924;25.562;2022-08-07T18:02:43;11.50;;;10.35;;
54899;SDS011;40801;41.924;25.562;2022-08-07T18:11:02;10.05;;;9.13;;
54899;SDS011;40801;41.924;25.562;2022-08-07T18:13:44;10.68;;;9.40;;
54899;SDS011;40801;41.924;25.562;2022-08-07T18:16:29;10.75;;;9.85;;
54899;SDS011;40801;41.924;25.562;2022-08-07T18:19:14;9.85;;;9.05;;
54899;SDS011;40801;41.924;25.562;2022-08-07T18:22:09;11.38;;;10.57;;